Troy Grove, IL (61372)

3:18 AM CDT on July 29, 2016 (GMT -0500)
Dimmick | | Change Station

Elev 659 ft 41.44 °N, 89.11 °W | Updated 12 minutes ago

Fog
Fog
68.9 °F
Feels Like 68.9 °F
N
3.2
Wind Variable Wind from NNE

Today
High -- | Low -- °F
--% Chance of Precip.
Yesterday
High -- | Low -- °F
Precip. -- in
Pressure 29.92 in
Visibility 0.2 miles
Clouds Overcast 200 ft
Dew Point 69 °F
Humidity 99%
Rainfall 0.05 in
Snow Depth Not available.
5:48 AM 8:16 PM
Waning Crescent, 24% visible
METAR KVYS 290755Z AUTO 05003KT 1/4SM FG OVC002 21/21 A2992 RMK AO2 T02080208
Pressure 29.92 in
Visibility 0.2 miles
Clouds Overcast 200 ft
Dew Point 69 °F
Humidity 99%
Rainfall 0.05 in
Snow Depth Not available.
5:48 AM 8:16 PM
Waning Crescent, 24% visible
METAR KVYS 290755Z AUTO 05003KT 1/4SM FG OVC002 21/21 A2992 RMK AO2 T02080208

10-Day Weather Forecast

Almanac

Astronomy

Jul. 29, 2016 Rise Set
Actual Time
Civil Twilight
Nautical Twilight
Astronomical Twilight
Moon
Length of Visible Light
Length of Day
Tomorrow will be .
, % of the Moon is Illuminated

Today's Extremes

State Highs State Lows

Community

WunderPhotos

Upload Photos

1,928,300 photos uploaded!

WunderBlog® & News

Nearby

Air Quality

  Air Quality AQ Index Pollutant
Not available.

Snow Depth

Station Depth Elevation

Earthquake Activity

City Distance Mag. Time & Date
Minimum magnitude displayed is 2.5.

Coastal Water Temperatures

Place Temperature

Stations

Nearby Weather Stations

Station Location Temp. Windchill Dew Point Humidity Wind Precip. Elev Updated Type
                   

Watches & Warnings

There are currently no watches in effect.